Time;durP1;ratioP1;P1;durP2;ratioP2;P2;SDS_P1;SDS_P2;PMS_P1;PMS_P2;Temp;Humidity;BMP_temperature;BMP_pressure;BME280_temperature;BME280_humidity;BME280_pressure;Samples;Min_cycle;Max_cycle;Signal;HPM_P1;HPM_P2
2023/01/02 00:00:41;;;;;;;;;;;;;;;10.42;100.00;100922.63;5040086;28;19921;-80
2023/01/02 00:03:06;;;;;;;;;;;;;;;10.43;100.00;100926.13;5035932;28;19921;-80
2023/01/02 00:05:31;;;;;;;;;;;;;;;10.43;100.00;100921.72;5032129;28;19930;-80
2023/01/02 00:07:56;;;;;;;;;;;;;;;10.44;100.00;100919.94;5031298;28;19921;-80
2023/01/02 00:10:22;;;;;;;;;;;;;;;10.43;100.00;100916.50;5011194;28;19921;-80
2023/01/02 00:12:47;;;;;;;;;;;;;;;10.44;100.00;100906.84;5030865;28;19960;-80
2023/01/02 00:15:12;;;;;;;;;;;;;;;10.43;100.00;100903.41;5030384;28;19929;-80
2023/01/02 00:17:38;;;;;;;;;;;;;;;10.44;100.00;100896.38;5032718;28;19971;-80
2023/01/02 00:20:03;;;;;;;;;;;;;;;10.43;100.00;100890.31;5040394;28;19917;-80
2023/01/02 00:22:28;;;;;;;;;;;;;;;10.44;100.00;100885.91;5022158;28;19925;-80
2023/01/02 00:24:54;;;;;;;;;;;;;;;10.44;100.00;100884.16;5020536;28;19918;-80
2023/01/02 00:27:19;;;;;;;;;;;;;;;10.44;100.00;100892.03;5021702;28;19910;-80
2023/01/02 00:29:44;;;;;;;;;;;;;;;10.45;100.00;100890.25;5020426;28;19992;-80
2023/01/02 00:32:10;;;;;;;;;;;;;;;10.44;100.00;100878.94;5025196;28;20165;-80
2023/01/02 00:34:35;;;;;;;;;;;;;;;10.46;100.00;100886.69;5039929;28;19921;-80
2023/01/02 00:37:00;;;;;;;;;;;;;;;10.45;100.00;100885.84;5038209;28;19917;-80
2023/01/02 00:39:26;;;;;;;;;;;;;;;10.46;100.00;100886.69;5021260;28;19918;-80
2023/01/02 00:41:51;;;;;;;;;;;;;;;10.45;100.00;100891.09;5020618;28;19929;-80
2023/01/02 00:44:17;;;;;;;;;;;;;;;10.45;100.00;100892.88;5019924;28;19936;-80
2023/01/02 00:46:42;;;;;;;;;;;;;;;10.46;100.00;100887.56;5020279;28;19921;-80
2023/01/02 00:49:07;;;;;;;;;;;;;;;10.46;100.00;100887.56;5036471;28;20128;-80
2023/01/02 00:51:32;;;;;;;;;;;;;;;10.46;100.00;100884.97;5039818;28;20186;-80
2023/01/02 00:53:58;;;;;;;;;;;;;;;10.46;100.00;100878.84;5016424;28;20112;-79
2023/01/02 00:56:23;;;;;;;;;;;;;;;10.46;100.00;100874.47;5024399;28;19913;-80
2023/01/02 00:58:48;;;;;;;;;;;;;;;10.46;100.00;100874.47;5026597;28;19925;-80
2023/01/02 01:01:13;;;;;;;;;;;;;;;10.47;100.00;100878.78;5019301;28;20008;-80
2023/01/02 01:03:42;;;;;;;;;;;;;;;10.47;100.00;100872.72;5019749;28;19995;-80
2023/01/02 01:06:08;;;;;;;;;;;;;;;10.48;100.00;100861.34;5020028;28;19918;-80
2023/01/02 01:08:34;;;;;;;;;;;;;;;10.47;100.00;100857.84;5020015;28;19922;-80
2023/01/02 01:11:03;;;;;;;;;;;;;;;10.47;100.00;100850.00;5020256;28;20136;-80
2023/01/02 01:13:29;;;;;;;;;;;;;;;10.48;100.00;100843.00;5023464;28;20235;-80
2023/01/02 01:15:54;;;;;;;;;;;;;;;10.47;100.00;100842.13;5019786;28;19921;-80
2023/01/02 01:18:19;;;;;;;;;;;;;;;10.47;100.00;100842.13;5019014;28;19921;-80
2023/01/02 01:20:45;;;;;;;;;;;;;;;10.48;100.00;100840.38;5039928;28;20063;-80
2023/01/02 01:23:10;;;;;;;;;;;;;;;10.48;100.00;100828.13;5038899;28;19920;-80
2023/01/02 01:25:35;;;;;;;;;;;;;;;10.48;100.00;100840.38;5035971;28;19999;-80
2023/01/02 01:28:01;;;;;;;;;;;;;;;10.48;100.00;100833.38;5039610;28;19935;-80
2023/01/02 01:30:26;;;;;;;;;;;;;;;10.49;100.00;100836.84;5024279;28;19929;-80
2023/01/02 01:32:52;;;;;;;;;;;;;;;10.48;100.00;100838.63;5019452;28;19987;-80
2023/01/02 01:35:17;;;;;;;;;;;;;;;10.48;100.00;100837.78;5035127;28;19921;-80
2023/01/02 01:37:42;;;;;;;;;;;;;;;10.49;100.00;100842.91;5038864;28;19913;-80
2023/01/02 01:40:08;;;;;;;;;;;;;;;10.48;100.00;100841.22;5028083;28;19936;-80
2023/01/02 01:42:33;;;;;;;;;;;;;;;10.49;100.00;100850.78;5025252;28;19920;-80
2023/01/02 01:44:59;;;;;;;;;;;;;;;10.49;100.00;100848.16;5038651;28;20228;-80
2023/01/02 01:47:27;;;;;;;;;;;;;;;10.49;100.00;100856.00;5039308;28;20200;-80
2023/01/02 01:50:09;;;;;;;;;;;;;;;10.49;100.00;100861.25;5033329;28;19921;-80
2023/01/02 01:52:36;;;;;;;;;;;;;;;10.50;100.00;100856.88;5018653;28;19993;-80
2023/01/02 01:55:06;;;;;;;;;;;;;;;10.49;100.00;100861.25;5023554;28;19928;-80
2023/01/02 01:57:35;;;;;;;;;;;;;;;10.50;100.00;100864.75;5039090;28;19952;-80
2023/01/02 02:00:00;;;;;;;;;;;;;;;10.49;100.00;100863.03;5034629;28;19921;-80
2023/01/02 02:02:27;;;;;;;;;;;;;;;10.50;100.00;100864.75;5019250;28;19988;-80
2023/01/02 02:04:52;;;;;;;;;;;;;;;10.49;100.00;100869.09;5020384;28;19925;-80
2023/01/02 02:07:18;;;;;;;;;;;;;;;10.49;100.00;100858.63;5030124;28;19917;-80
2023/01/02 02:09:48;;;;;;;;;;;;;;;10.49;100.00;100871.72;5019595;28;19918;-80
2023/01/02 02:12:16;;;;;;;;;;;;;;;10.50;100.00;100867.34;5038485;28;20104;-80
2023/01/02 02:14:41;;;;;;;;;;;;;;;10.51;100.00;100867.31;5036587;28;19916;-80
2023/01/02 02:17:15;;;;;;;;;;;;;;;10.51;100.00;100872.53;5037707;28;20263;-80
2023/01/02 02:19:59;;;;;;;;;;;;;;;10.51;100.00;100864.69;5018215;28;19935;-80
2023/01/02 02:22:24;;;;;;;;;;;;;;;10.50;100.00;100856.88;5021081;28;19910;-80
2023/01/02 02:25:08;;;;;;;;;;;;;;;10.50;100.00;100860.34;5037892;28;20020;-80
2023/01/02 02:27:46;;;;;;;;;;;;;;;10.50;100.00;100860.34;5036136;28;19939;-80
2023/01/02 02:30:14;;;;;;;;;;;;;;;10.51;100.00;100863.81;5036711;28;19921;-80
2023/01/02 02:32:48;;;;;;;;;;;;;;;10.51;100.00;100872.53;5035408;28;19966;-80
2023/01/02 02:35:28;;;;;;;;;;;;;;;10.51;100.00;100872.53;5017340;28;20101;-80
2023/01/02 02:38:06;;;;;;;;;;;;;;;10.51;100.00;100862.06;5020234;28;19921;-80
2023/01/02 02:40:37;;;;;;;;;;;;;;;10.52;100.00;100868.16;5025699;28;19913;-80
2023/01/02 02:43:02;;;;;;;;;;;;;;;10.52;100.00;100862.91;5020331;28;19976;-80
2023/01/02 02:45:47;;;;;;;;;;;;;;;10.52;100.00;100858.50;5038137;28;19924;-80
2023/01/02 02:48:31;;;;;;;;;;;;;;;10.52;100.00;100858.50;5035566;28;19979;-80
2023/01/02 02:51:02;;;;;;;;;;;;;;;10.52;100.00;100860.28;5016691;28;20275;-80
2023/01/02 02:53:34;;;;;;;;;;;;;;;10.52;100.00;100853.28;5018964;28;19948;-80
2023/01/02 02:56:02;;;;;;;;;;;;;;;10.52;100.00;100842.81;5018351;28;19988;-80
2023/01/02 02:58:28;;;;;;;;;;;;;;;10.53;100.00;100846.28;5018533;28;19985;-80
2023/01/02 03:01:06;;;;;;;;;;;;;;;10.54;100.00;100845.38;5017983;28;19917;-80
2023/01/02 03:03:32;;;;;;;;;;;;;;;10.54;100.00;100840.13;5017600;28;19995;-80
2023/01/02 03:06:13;;;;;;;;;;;;;;;10.53;100.00;100828.81;5036944;28;20193;-80
2023/01/02 03:08:41;;;;;;;;;;;;;;;10.54;100.00;100827.03;5035884;28;19941;-80
2023/01/02 03:11:07;;;;;;;;;;;;;;;10.54;100.00;100834.91;5018146;28;19909;-80
2023/01/02 03:13:51;;;;;;;;;;;;;;;10.54;100.00;100837.50;5017942;28;20007;-80
2023/01/02 03:16:28;;;;;;;;;;;;;;;10.56;100.00;100843.53;5018044;28;20119;-80
2023/01/02 03:18:57;;;;;;;;;;;;;;;10.54;100.00;100840.97;5017466;28;19925;-80
2023/01/02 03:21:38;;;;;;;;;;;;;;;10.55;100.00;100833.97;5037514;28;19909;-80
2023/01/02 03:24:08;;;;;;;;;;;;;;;10.56;100.00;100841.75;5041049;28;20000;-80
2023/01/02 03:26:35;;;;;;;;;;;;;;;10.55;100.00;100826.97;5022812;28;19916;-80
2023/01/02 03:29:09;;;;;;;;;;;;;;;10.55;100.00;100837.47;5040793;28;20010;-80
2023/01/02 03:31:36;;;;;;;;;;;;;;;10.57;100.00;100843.47;5021876;28;19913;-80
2023/01/02 03:34:11;;;;;;;;;;;;;;;10.57;100.00;100835.63;5041452;28;19925;-80
2023/01/02 03:36:38;;;;;;;;;;;;;;;10.57;100.00;100843.47;5040082;28;20490;-79
2023/01/02 03:39:09;;;;;;;;;;;;;;;10.57;100.00;100835.63;5038359;28;19913;-79
2023/01/02 03:41:40;;;;;;;;;;;;;;;10.59;100.00;100850.41;5026778;28;19973;-78
2023/01/02 03:44:08;;;;;;;;;;;;;;;10.59;100.00;100847.78;5040317;28;19928;-79
2023/01/02 03:46:48;;;;;;;;;;;;;;;10.60;100.00;100846.88;5040006;28;20248;-79
2023/01/02 03:49:17;;;;;;;;;;;;;;;10.59;100.00;100851.28;5038847;28;19948;-79
2023/01/02 03:51:43;;;;;;;;;;;;;;;10.60;100.00;100847.72;5034781;28;19917;-79
2023/01/02 03:54:09;;;;;;;;;;;;;;;10.60;100.00;100837.25;5040781;28;19959;-79
2023/01/02 03:57:00;;;;;;;;;;;;;;;10.62;100.00;100868.63;5039723;28;19921;-79
2023/01/02 03:59:43;;;;;;;;;;;;;;;10.61;100.00;100859.91;5024738;28;20010;-79
2023/01/02 04:02:16;;;;;;;;;;;;;;;10.63;100.00;100859.88;5025268;28;19917;-79
2023/01/02 04:05:11;;;;;;;;;;;;;;;10.64;100.00;100853.69;5039408;28;19951;-79
2023/01/02 04:07:43;;;;;;;;;;;;;;;10.67;100.00;100866.66;5003267;28;19913;-79
2023/01/02 04:10:09;;;;;;;;;;;;;;;10.68;100.00;100865.78;5036915;28;19940;-79
2023/01/02 04:12:37;;;;;;;;;;;;;;;10.68;100.00;100871.00;5020262;28;19910;-79
2023/01/02 04:15:04;;;;;;;;;;;;;;;10.70;100.00;100866.56;5022155;28;19917;-79
2023/01/02 04:17:33;;;;;;;;;;;;;;;10.70;100.00;100871.78;5039180;28;20337;-79
2023/01/02 04:20:01;;;;;;;;;;;;;;;10.71;100.00;100878.72;5040977;28;20203;-79
2023/01/02 04:22:29;;;;;;;;;;;;;;;10.73;100.00;100882.13;5021103;28;19913;-79
2023/01/02 04:24:56;;;;;;;;;;;;;;;10.73;100.00;100879.50;5020105;28;20090;-79
2023/01/02 04:27:24;;;;;;;;;;;;;;;10.74;100.00;100891.69;5038647;28;19996;-79
2023/01/02 04:29:50;;;;;;;;;;;;;;;10.75;100.00;100902.13;5039895;28;19921;-79
2023/01/02 04:32:20;;;;;;;;;;;;;;;10.74;100.00;100920.53;5023958;28;19922;-79
2023/01/02 04:34:47;;;;;;;;;;;;;;;10.69;100.00;100920.69;5019533;28;19979;-79
2023/01/02 04:37:29;;;;;;;;;;;;;;;10.60;100.00;100934.16;5020236;28;19921;-79
2023/01/02 04:39:57;;;;;;;;;;;;;;;10.56;100.00;100948.28;5020012;28;20108;-79
2023/01/02 04:42:22;;;;;;;;;;;;;;;10.45;100.00;100955.72;5033841;28;19920;-79
2023/01/02 04:44:47;;;;;;;;;;;;;;;10.42;100.00;100954.03;5038146;28;20252;-79
2023/01/02 04:47:13;;;;;;;;;;;;;;;10.40;100.00;100963.72;5028439;28;20024;-79
2023/01/02 04:49:38;;;;;;;;;;;;;;;10.38;100.00;100971.63;5019965;28;19947;-79
2023/01/02 04:52:03;;;;;;;;;;;;;;;10.34;100.00;100987.53;5028561;28;19952;-80
2023/01/02 04:54:28;;;;;;;;;;;;;;;10.24;100.00;100984.38;5038773;28;19921;-79
2023/01/02 04:56:54;;;;;;;;;;;;;;;10.25;100.00;100999.16;5033167;28;20072;-79
2023/01/02 04:59:19;;;;;;;;;;;;;;;10.25;100.00;100999.16;5002441;28;20189;-79
2023/01/02 05:01:44;;;;;;;;;;;;;;;10.20;100.00;101006.31;5019391;28;19921;-79
2023/01/02 05:04:09;;;;;;;;;;;;;;;10.16;100.00;101012.56;5025024;28;19917;-79
2023/01/02 05:06:35;;;;;;;;;;;;;;;10.11;100.00;101015.34;5031798;28;19992;-79
2023/01/02 05:09:00;;;;;;;;;;;;;;;10.08;100.00;101022.47;5039897;28;19913;-79
2023/01/02 05:11:25;;;;;;;;;;;;;;;10.08;100.00;101041.66;5039817;28;20078;-79
2023/01/02 05:13:51;;;;;;;;;;;;;;;10.07;100.00;101049.53;5020428;28;19920;-79
2023/01/02 05:16:16;;;;;;;;;;;;;;;10.03;100.00;101046.19;5019625;28;19947;-79
2023/01/02 05:18:41;;;;;;;;;;;;;;;10.05;100.00;101046.97;5034685;28;19925;-79
2023/01/02 05:23:47;;;;;;;;;;;;;;;10.02;100.00;101049.69;5039533;28;19937;-79
2023/01/02 05:23:54;;;;;;;;;;;;;;;10.03;100.00;101053.19;5022423;28;20182;-79
2023/01/02 05:26:19;;;;;;;;;;;;;;;10.03;100.00;101066.28;5018040;28;19929;-79
2023/01/02 05:28:44;;;;;;;;;;;;;;;10.01;100.00;101062.84;5021438;28;20001;-79
2023/01/02 05:31:10;;;;;;;;;;;;;;;9.99;100.00;101073.38;5019428;28;20221;-79
2023/01/02 05:33:35;;;;;;;;;;;;;;;9.97;100.00;101077.81;5028960;28;19932;-79
2023/01/02 05:36:03;;;;;;;;;;;;;;;9.87;100.00;101082.47;5037853;28;19925;-79
2023/01/02 05:38:29;;;;;;;;;;;;;;;9.86;100.00;101101.72;5030504;28;20267;-79
2023/01/02 05:40:59;;;;;;;;;;;;;;;9.84;100.00;101111.38;5019144;28;19917;-79
2023/01/02 05:43:24;;;;;;;;;;;;;;;9.83;100.00;101124.50;5019159;28;19926;-79
2023/01/02 05:45:49;;;;;;;;;;;;;;;9.78;100.00;101122.03;5000282;28;20008;-79
2023/01/02 05:48:14;;;;;;;;;;;;;;;9.74;100.00;101123.88;5020889;28;19917;-79
2023/01/02 05:50:40;;;;;;;;;;;;;;;9.73;100.00;101129.16;5038404;28;19974;-79
2023/01/02 05:53:05;;;;;;;;;;;;;;;9.69;100.00;101132.78;5037840;28;19985;-79
2023/01/02 05:55:30;;;;;;;;;;;;;;;9.67;100.00;101139.81;5018934;28;20296;-79
2023/01/02 05:57:58;;;;;;;;;;;;;;;9.67;100.00;101150.28;5017107;28;20274;-79
2023/01/02 06:00:23;;;;;;;;;;;;;;;9.65;100.00;101152.94;5035351;28;19947;-79
2023/01/02 06:02:48;;;;;;;;;;;;;;;9.63;100.00;101152.16;5038111;28;19920;-79
2023/01/02 06:05:13;;;;;;;;;;;;;;;9.64;100.00;101155.59;5023644;28;19929;-79
2023/01/02 06:07:39;;;;;;;;;;;;;;;9.61;100.00;101161.81;5018281;28;19928;-79
2023/01/02 06:10:04;;;;;;;;;;;;;;;9.56;100.00;101166.31;5030979;28;19925;-79
2023/01/02 06:12:29;;;;;;;;;;;;;;;9.52;100.00;101165.56;5038853;28;19953;-79
2023/01/02 06:14:55;;;;;;;;;;;;;;;9.51;100.00;101170.81;5037101;28;20212;-79
2023/01/02 06:17:21;;;;;;;;;;;;;;;9.51;100.00;101178.66;5038426;28;20353;-79
2023/01/02 06:19:46;;;;;;;;;;;;;;;9.50;100.00;101188.28;5037011;28;19932;-79
2023/01/02 06:22:11;;;;;;;;;;;;;;;9.47;100.00;101187.50;5038223;28;20179;-79
2023/01/02 06:24:37;;;;;;;;;;;;;;;9.48;100.00;101191.81;5027794;28;20174;-79
2023/01/02 06:27:02;;;;;;;;;;;;;;;9.46;100.00;101193.63;5038541;28;19928;-79
2023/01/02 06:29:27;;;;;;;;;;;;;;;9.46;100.00;101201.47;5034171;28;19960;-79
2023/01/02 06:31:53;;;;;;;;;;;;;;;9.44;100.00;101211.13;5016510;28;19929;-79
2023/01/02 06:34:18;;;;;;;;;;;;;;;9.43;100.00;101214.66;5018032;28;19922;-79
2023/01/02 06:36:43;;;;;;;;;;;;;;;9.43;100.00;101217.28;5036221;28;19992;-79
2023/01/02 06:39:08;;;;;;;;;;;;;;;9.44;100.00;101219.84;5037543;28;19924;-79
2023/01/02 06:41:34;;;;;;;;;;;;;;;9.45;100.00;101231.16;5020548;28;19949;-79
2023/01/02 06:43:59;;;;;;;;;;;;;;;9.45;100.00;101229.38;5018279;28;20356;-79
2023/01/02 06:46:24;;;;;;;;;;;;;;;9.46;100.00;101233.72;5031650;28;19928;-79
2023/01/02 06:48:50;;;;;;;;;;;;;;;9.46;100.00;101244.19;5037421;28;19921;-79
2023/01/02 06:51:17;;;;;;;;;;;;;;;9.42;100.00;101245.16;5026039;28;20173;-79
2023/01/02 06:53:43;;;;;;;;;;;;;;;9.42;100.00;101242.53;5016209;28;19948;-79
2023/01/02 06:56:09;;;;;;;;;;;;;;;9.40;100.00;101247.84;5026907;28;19952;-79
2023/01/02 06:58:35;;;;;;;;;;;;;;;9.40;100.00;101258.28;5035408;28;19925;-79
2023/01/02 07:01:02;;;;;;;;;;;;;;;9.40;100.00;101255.69;5021479;28;19960;-79
2023/01/02 07:03:27;;;;;;;;;;;;;;;9.36;100.00;101267.09;5031016;28;19960;-79
2023/01/02 07:05:53;;;;;;;;;;;;;;;9.34;100.00;101274.13;5036615;28;19921;-79
2023/01/02 07:08:18;;;;;;;;;;;;;;;9.34;100.00;101289.81;5036141;28;20232;-79
2023/01/02 07:10:43;;;;;;;;;;;;;;;9.31;100.00;101295.13;5026746;28;19949;-79
2023/01/02 07:13:08;;;;;;;;;;;;;;;9.30;100.00;101305.66;5017579;28;19925;-79
2023/01/02 07:15:35;;;;;;;;;;;;;;;9.28;100.00;101305.69;5022649;28;19927;-79
2023/01/02 07:18:00;;;;;;;;;;;;;;;9.28;100.00;101307.41;5031033;28;20224;-79
2023/01/02 07:20:25;;;;;;;;;;;;;;;9.28;100.00;101317.88;5026677;28;19921;-79
2023/01/02 07:22:51;;;;;;;;;;;;;;;9.27;100.00;101311.81;5032790;28;19921;-79
2023/01/02 07:25:17;;;;;;;;;;;;;;;9.28;100.00;101325.72;5036887;28;19952;-79
2023/01/02 07:27:42;;;;;;;;;;;;;;;9.26;100.00;101332.75;5033600;28;19909;-79
2023/01/02 07:30:08;;;;;;;;;;;;;;;9.26;100.00;101333.63;5037556;28;20141;-79
2023/01/02 07:32:33;;;;;;;;;;;;;;;9.24;100.00;101340.66;5036220;28;19933;-79
2023/01/02 07:34:58;;;;;;;;;;;;;;;9.25;100.00;101344.97;5019799;28;20209;-79
2023/01/02 07:37:23;;;;;;;;;;;;;;;9.22;100.00;101356.38;5029460;28;20201;-79
2023/01/02 07:39:49;;;;;;;;;;;;;;;9.20;100.00;101358.19;5015890;28;19927;-79
2023/01/02 07:42:14;;;;;;;;;;;;;;;9.16;100.00;101368.72;5023019;28;19993;-79
2023/01/02 07:44:39;;;;;;;;;;;;;;;9.12;100.00;101375.78;5029980;28;20246;-79
2023/01/02 07:47:05;;;;;;;;;;;;;;;9.09;100.00;101385.47;5022268;28;19948;-79
2023/01/02 07:49:30;;;;;;;;;;;;;;;9.05;100.00;101397.75;5035620;28;19925;-79
2023/01/02 07:51:55;;;;;;;;;;;;;;;8.98;100.00;101404.88;5036676;28;19925;-79
2023/01/02 07:54:20;;;;;;;;;;;;;;;8.94;100.00;101411.06;5035792;28;19996;-79
2023/01/02 07:56:46;;;;;;;;;;;;;;;8.89;100.00;101410.31;5022352;28;20123;-79
2023/01/02 07:59:11;;;;;;;;;;;;;;;8.88;100.00;101419.06;5035305;28;19917;-79
2023/01/02 08:01:36;;;;;;;;;;;;;;;8.85;100.00;101421.75;5037090;28;19921;-79
2023/01/02 08:04:01;;;;;;;;;;;;;;;8.81;100.00;101434.03;5029814;28;19925;-80
2023/01/02 08:06:27;;;;;;;;;;;;;;;8.79;100.00;101437.59;5017429;28;19928;-79
2023/01/02 08:08:53;;;;;;;;;;;;;;;8.75;100.00;101442.03;5018182;28;19992;-79
2023/01/02 08:11:19;;;;;;;;;;;;;;;8.73;100.00;101437.72;5003507;28;19921;-79
2023/01/02 08:13:44;;;;;;;;;;;;;;;8.70;100.00;101443.88;5030980;28;19975;-79
2023/01/02 08:16:11;;;;;;;;;;;;;;;8.68;100.00;101444.78;5040666;28;19917;-80
2023/01/02 08:18:37;;;;;;;;;;;;;;;8.69;100.00;101438.69;5032069;28;19928;-79
2023/01/02 08:21:02;;;;;;;;;;;;;;;8.67;100.00;101443.09;5021253;28;19950;-79
2023/01/02 08:23:28;;;;;;;;;;;;;;;8.64;100.00;101455.31;5028465;28;19928;-79
2023/01/02 08:26:00;;;;;;;;;;;;;;;8.64;100.00;101459.66;5019456;28;19959;-79
2023/01/02 08:28:26;;;;;;;;;;;;;;;8.64;100.00;101460.53;5024595;28;19913;-80
2023/01/02 08:30:51;;;;;;;;;;;;;;;8.62;100.00;101469.28;5030111;28;19980;-79
2023/01/02 08:33:16;;;;;;;;;;;;;;;8.61;100.00;101478.03;5027097;28;19968;-79
2023/01/02 08:35:41;;;;;;;;;;;;;;;8.59;100.00;101480.66;5021337;28;20100;-80
2023/01/02 08:38:07;;;;;;;;;;;;;;;8.58;100.00;101483.31;5019834;28;20238;-79
2023/01/02 08:40:32;;;;;;;;;;;;;;;8.55;100.00;101493.81;5040391;28;20212;-79
2023/01/02 08:42:57;;;;;;;;;;;;;;;8.46;100.00;101497.50;5043849;28;19929;-79
2023/01/02 08:45:23;;;;;;;;;;;;;;;8.46;100.00;101489.69;5032503;28;19964;-79
2023/01/02 08:47:48;;;;;;;;;;;;;;;8.46;100.00;101497.50;5023956;28;19926;-79
2023/01/02 08:50:13;;;;;;;;;;;;;;;8.43;100.00;101506.25;5025908;28;19930;-79
2023/01/02 08:52:38;;;;;;;;;;;;;;;8.45;100.00;101522.72;5033462;28;19992;-79
2023/01/02 08:55:04;;;;;;;;;;;;;;;8.42;100.00;101508.88;5040610;28;19960;-79
2023/01/02 08:57:30;;;;;;;;;;;;;;;8.43;100.00;101510.63;5037611;28;19921;-79
2023/01/02 08:59:55;;;;;;;;;;;;;;;8.44;100.00;101517.53;5036725;28;20124;-79
2023/01/02 09:02:20;;;;;;;;;;;;;;;8.45;100.00;101514.03;5024066;28;20216;-79
2023/01/02 09:04:45;;;;;;;;;;;;;;;8.46;100.00;101521.00;5026407;28;19921;-79
2023/01/02 09:07:11;;;;;;;;;;;;;;;8.49;100.00;101528.75;5030170;28;20010;-79
2023/01/02 09:09:36;;;;;;;;;;;;;;;8.51;100.00;101533.94;5028112;28;19925;-79
2023/01/02 09:12:01;;;;;;;;;;;;;;;8.52;100.00;101541.75;5025251;28;19940;-79
2023/01/02 09:14:26;;;;;;;;;;;;;;;8.52;100.00;101543.50;5024479;28;19921;-79
2023/01/02 09:16:52;;;;;;;;;;;;;;;8.52;100.00;101553.94;5029665;28;20259;-79
2023/01/02 09:19:17;;;;;;;;;;;;;;;8.53;100.00;101560.88;5030655;28;19925;-79
2023/01/02 09:21:42;;;;;;;;;;;;;;;8.56;100.00;101555.59;5036604;28;19913;-79
2023/01/02 09:24:08;;;;;;;;;;;;;;;8.58;100.00;101552.03;5035697;28;19921;-79
2023/01/02 09:26:33;;;;;;;;;;;;;;;8.57;100.00;101547.72;5030393;28;20262;-79
2023/01/02 09:28:59;;;;;;;;;;;;;;;8.56;100.00;101553.84;5037171;28;19917;-79
2023/01/02 09:31:24;;;;;;;;;;;;;;;8.58;100.00;101552.03;5037784;28;19913;-79
2023/01/02 09:33:52;;;;;;;;;;;;;;;8.55;100.00;101557.34;5042786;28;20167;-79
2023/01/02 09:36:19;;;;;;;;;;;;;;;8.51;100.00;101547.84;5043055;28;20232;-79
2023/01/02 09:38:49;;;;;;;;;;;;;;;8.53;100.00;101540.88;5040131;28;19913;-79
2023/01/02 09:41:17;;;;;;;;;;;;;;;8.55;100.00;101548.63;5039882;28;20181;-79
2023/01/02 09:43:45;;;;;;;;;;;;;;;8.57;100.00;101544.28;5038072;28;19928;-79
2023/01/02 09:46:49;;;;;;;;;;;;;;;8.59;100.00;101545.09;5050792;28;19929;-79
2023/01/02 09:49:17;;;;;;;;;;;;;;;8.62;100.00;101558.94;4979548;28;19985;-79
2023/01/02 09:51:43;;;;;;;;;;;;;;;8.63;100.00;101563.25;4996369;28;20124;-79
2023/01/02 09:54:28;;;;;;;;;;;;;;;8.65;100.00;101574.53;5013987;28;19925;-79
2023/01/02 09:57:02;;;;;;;;;;;;;;;8.68;100.00;101588.41;5032311;28;19921;-79
2023/01/02 09:59:32;;;;;;;;;;;;;;;8.70;100.00;101584.03;5038248;28;19929;-80
2023/01/02 10:02:07;;;;;;;;;;;;;;;8.72;100.00;101592.69;5028987;28;20087;-79
2023/01/02 10:04:38;;;;;;;;;;;;;;;8.72;100.00;101605.75;5030916;28;19921;-79
2023/01/02 10:07:16;;;;;;;;;;;;;;;8.73;100.00;101610.06;5026601;28;20011;-79
2023/01/02 10:09:44;;;;;;;;;;;;;;;8.74;100.00;101598.75;5024289;28;19992;-79
2023/01/02 10:12:42;;;;;;;;;;;;;;;8.75;100.00;101603.06;5024683;28;20150;-80
2023/01/02 10:15:14;;;;;;;;;;;;;;;8.77;100.00;101596.09;5012807;28;19921;-79
2023/01/02 10:17:44;;;;;;;;;;;;;;;8.77;100.00;101594.31;5029483;28;19932;-80
2023/01/02 10:20:26;;;;;;;;;;;;;;;8.79;100.00;101586.44;5024321;28;19958;-79
2023/01/02 10:22:57;;;;;;;;;;;;;;;8.81;100.00;101580.28;5020809;28;20209;-79
2023/01/02 10:25:31;;;;;;;;;;;;;;;8.82;100.00;101581.16;5026874;28;19963;-80
2023/01/02 10:28:17;;;;;;;;;;;;;;;8.80;100.00;101575.97;5034568;28;19924;-80
2023/01/02 10:30:46;;;;;;;;;;;;;;;8.81;100.00;101601.19;5026000;28;19948;-80
2023/01/02 10:33:17;;;;;;;;;;;;;;;8.80;100.00;101596.88;5037047;28;19954;-79
2023/01/02 10:35:42;;;;;;;;;;;;;;;8.79;100.00;101599.50;5033859;28;19909;-80
2023/01/02 10:38:12;;;;;;;;;;;;;;;8.77;100.00;101591.72;5023349;28;20232;-80
2023/01/02 10:40:39;;;;;;;;;;;;;;;8.75;100.00;101603.94;5022194;28;19929;-79
2023/01/02 10:43:04;;;;;;;;;;;;;;;8.75;100.00;101597.84;5027409;28;19909;-80
2023/01/02 10:45:32;;;;;;;;;;;;;;;8.74;100.00;101607.44;5023173;28;19925;-80
2023/01/02 10:47:57;;;;;;;;;;;;;;;8.73;100.00;101605.72;5021277;28;19921;-80
2023/01/02 10:50:26;;;;;;;;;;;;;;;8.75;100.00;101622.22;5027063;28;19951;-80
2023/01/02 10:52:53;;;;;;;;;;;;;;;8.73;100.00;101613.56;5036066;28;20273;-79
2023/01/02 10:55:38;;;;;;;;;;;;;;;8.74;100.00;101619.63;5025162;28;19933;-80
2023/01/02 10:58:05;;;;;;;;;;;;;;;8.77;100.00;101611.75;5026899;28;19917;-80
2023/01/02 11:00:31;;;;;;;;;;;;;;;8.74;100.00;101610.03;5024765;28;19976;-80
2023/01/02 11:02:58;;;;;;;;;;;;;;;8.74;100.00;101622.25;5029935;28;20261;-80
2023/01/02 11:05:24;;;;;;;;;;;;;;;8.75;100.00;101634.41;5028231;28;19925;-79
2023/01/02 11:07:50;;;;;;;;;;;;;;;8.76;100.00;101630.91;5037714;28;19921;-80
2023/01/02 11:10:27;;;;;;;;;;;;;;;8.77;100.00;101632.66;5029720;28;19928;-79
2023/01/02 11:12:52;;;;;;;;;;;;;;;8.78;100.00;101640.41;5031990;28;20459;-80
2023/01/02 11:15:29;;;;;;;;;;;;;;;8.79;100.00;101643.91;5034158;28;19925;-79
2023/01/02 11:17:55;;;;;;;;;;;;;;;8.78;100.00;101647.41;5035838;28;19917;-79
2023/01/02 11:20:29;;;;;;;;;;;;;;;8.78;100.00;101650.00;5033612;28;19916;-79
2023/01/02 11:22:56;;;;;;;;;;;;;;;8.78;100.00;101647.41;5035531;28;19924;-80
2023/01/02 11:25:24;;;;;;;;;;;;;;;8.79;100.00;101663.03;5043204;28;20181;-80
2023/01/02 11:27:50;;;;;;;;;;;;;;;8.79;100.00;101652.59;5030556;28;19923;-80
2023/01/02 11:30:28;;;;;;;;;;;;;;;8.78;100.00;101653.47;5035396;28;20263;-80
2023/01/02 11:33:01;;;;;;;;;;;;;;;8.80;100.00;101648.22;5033422;28;19925;-80
2023/01/02 11:35:30;;;;;;;;;;;;;;;8.81;100.00;101653.44;5038577;28;19916;-80
2023/01/02 11:37:56;;;;;;;;;;;;;;;8.82;100.00;101642.09;5034238;28;19924;-80
2023/01/02 11:40:25;;;;;;;;;;;;;;;8.84;100.00;101644.66;5028305;28;19926;-80
2023/01/02 11:45:36;;;;;;;;;;;;;;;8.87;100.00;101634.16;5028577;28;20130;-80
2023/01/02 11:48:09;;;;;;;;;;;;;;;8.88;100.00;101643.72;5044372;28;19917;-80
2023/01/02 11:50:36;;;;;;;;;;;;;;;8.89;100.00;101644.56;5033986;28;19964;-80
2023/01/02 11:53:13;;;;;;;;;;;;;;;8.90;100.00;101643.69;5034957;28;19979;-80
2023/01/02 11:55:42;;;;;;;;;;;;;;;8.89;100.00;101634.97;5037458;28;19917;-80
2023/01/02 11:58:16;;;;;;;;;;;;;;;8.90;100.00;101643.69;5043470;28;19957;-80
2023/01/02 12:00:42;;;;;;;;;;;;;;;8.90;100.00;101641.09;5042643;28;19917;-80
2023/01/02 12:03:13;;;;;;;;;;;;;;;8.91;100.00;101645.41;5049424;28;19913;-80
2023/01/02 12:05:54;;;;;;;;;;;;;;;8.90;100.00;101646.31;5039753;28;19913;-80
2023/01/02 12:08:37;;;;;;;;;;;;;;;8.92;100.00;101665.41;5043843;28;20216;-80
2023/01/02 12:11:13;;;;;;;;;;;;;;;8.91;100.00;101663.69;5038487;28;19909;-80
2023/01/02 12:13:50;;;;;;;;;;;;;;;8.92;100.00;101675.88;5032590;28;20074;-79
2023/01/02 12:16:16;;;;;;;;;;;;;;;8.89;100.00;101678.53;5043478;28;19985;-79
2023/01/02 12:18:56;;;;;;;;;;;;;;;8.84;100.00;101670.78;5039072;28;19909;-79
2023/01/02 12:21:23;;;;;;;;;;;;;;;8.82;100.00;101680.41;5038945;28;19909;-79
2023/01/02 12:23:48;;;;;;;;;;;;;;;8.78;100.00;101671.75;5046897;28;19955;-79
2023/01/02 12:26:19;;;;;;;;;;;;;;;8.77;100.00;101677.03;5037786;28;19928;-79
2023/01/02 12:28:48;;;;;;;;;;;;;;;8.75;100.00;101670.97;5038735;28;20228;-79
2023/01/02 12:31:29;;;;;;;;;;;;;;;8.73;100.00;101670.13;5039728;28;19927;-79
2023/01/02 12:34:06;;;;;;;;;;;;;;;8.72;100.00;101686.72;5038077;28;19924;-79
2023/01/02 12:36:55;;;;;;;;;;;;;;;8.71;100.00;101691.06;5038539;28;19917;-79
2023/01/02 12:39:20;;;;;;;;;;;;;;;8.70;100.00;101702.41;5012335;28;19940;-79
2023/01/02 12:41:45;;;;;;;;;;;;;;;8.71;100.00;101713.69;5038519;28;20236;-79